sensor_id;sensor_type;location;lat;lon;timestamp;P1;durP1;ratioP1;P2;durP2;ratioP2
33593;SDS011;19920;52.242;20.940;2023-04-15T00:01:09;9.80;;;7.25;;
33593;SDS011;19920;52.242;20.940;2023-04-15T00:03:35;11.13;;;8.13;;
33593;SDS011;19920;52.242;20.940;2023-04-15T00:06:01;10.30;;;7.57;;
33593;SDS011;19920;52.242;20.940;2023-04-15T00:08:27;13.77;;;8.15;;
33593;SDS011;19920;52.242;20.940;2023-04-15T00:10:54;9.88;;;7.82;;
33593;SDS011;19920;52.242;20.940;2023-04-15T00:13:19;11.30;;;8.32;;
33593;SDS011;19920;52.242;20.940;2023-04-15T00:15:45;10.90;;;7.63;;
33593;SDS011;19920;52.242;20.940;2023-04-15T00:18:11;9.23;;;6.82;;
33593;SDS011;19920;52.242;20.940;2023-04-15T00:20:37;11.98;;;8.10;;
33593;SDS011;19920;52.242;20.940;2023-04-15T00:23:02;11.05;;;8.07;;
33593;SDS011;19920;52.242;20.940;2023-04-15T00:25:29;11.32;;;7.93;;
33593;SDS011;19920;52.242;20.940;2023-04-15T00:27:55;11.15;;;7.60;;
33593;SDS011;19920;52.242;20.940;2023-04-15T00:30:21;11.20;;;8.65;;
33593;SDS011;19920;52.242;20.940;2023-04-15T00:32:47;11.20;;;8.07;;
33593;SDS011;19920;52.242;20.940;2023-04-15T00:35:13;13.52;;;8.52;;
33593;SDS011;19920;52.242;20.940;2023-04-15T00:37:39;10.27;;;8.32;;
33593;SDS011;19920;52.242;20.940;2023-04-15T00:40:05;10.73;;;8.48;;
33593;SDS011;19920;52.242;20.940;2023-04-15T00:42:33;11.85;;;8.55;;
33593;SDS011;19920;52.242;20.940;2023-04-15T00:44:59;10.15;;;8.57;;
33593;SDS011;19920;52.242;20.940;2023-04-15T00:47:25;11.50;;;7.88;;
33593;SDS011;19920;52.242;20.940;2023-04-15T00:49:53;11.23;;;8.27;;
33593;SDS011;19920;52.242;20.940;2023-04-15T00:52:18;11.45;;;8.60;;
33593;SDS011;19920;52.242;20.940;2023-04-15T00:54:44;12.73;;;9.25;;
33593;SDS011;19920;52.242;20.940;2023-04-15T00:57:10;10.75;;;8.20;;
33593;SDS011;19920;52.242;20.940;2023-04-15T00:59:35;11.70;;;8.75;;
33593;SDS011;19920;52.242;20.940;2023-04-15T01:02:01;11.90;;;8.45;;
33593;SDS011;19920;52.242;20.940;2023-04-15T01:04:27;11.63;;;8.82;;
33593;SDS011;19920;52.242;20.940;2023-04-15T01:06:53;11.00;;;8.15;;
33593;SDS011;19920;52.242;20.940;2023-04-15T01:09:19;14.98;;;8.68;;
33593;SDS011;19920;52.242;20.940;2023-04-15T01:11:44;10.73;;;8.48;;
33593;SDS011;19920;52.242;20.940;2023-04-15T01:14:10;12.85;;;9.05;;
33593;SDS011;19920;52.242;20.940;2023-04-15T01:16:36;9.32;;;7.93;;
33593;SDS011;19920;52.242;20.940;2023-04-15T01:19:05;12.23;;;8.50;;
33593;SDS011;19920;52.242;20.940;2023-04-15T01:21:37;9.85;;;8.32;;
33593;SDS011;19920;52.242;20.940;2023-04-15T01:24:07;12.00;;;9.48;;
33593;SDS011;19920;52.242;20.940;2023-04-15T01:26:37;11.45;;;9.23;;
33593;SDS011;19920;52.242;20.940;2023-04-15T01:29:04;10.68;;;8.38;;
33593;SDS011;19920;52.242;20.940;2023-04-15T01:31:30;12.95;;;9.88;;
33593;SDS011;19920;52.242;20.940;2023-04-15T01:33:57;14.68;;;9.80;;
33593;SDS011;19920;52.242;20.940;2023-04-15T01:36:24;12.60;;;9.60;;
33593;SDS011;19920;52.242;20.940;2023-04-15T01:38:50;12.10;;;9.07;;
33593;SDS011;19920;52.242;20.940;2023-04-15T01:41:15;14.63;;;10.27;;
33593;SDS011;19920;52.242;20.940;2023-04-15T01:43:45;12.80;;;10.35;;
33593;SDS011;19920;52.242;20.940;2023-04-15T01:46:11;11.38;;;9.38;;
33593;SDS011;19920;52.242;20.940;2023-04-15T01:48:36;13.65;;;10.18;;
33593;SDS011;19920;52.242;20.940;2023-04-15T01:51:02;13.98;;;10.45;;
33593;SDS011;19920;52.242;20.940;2023-04-15T01:53:27;11.90;;;9.98;;
33593;SDS011;19920;52.242;20.940;2023-04-15T01:55:54;13.48;;;10.25;;
33593;SDS011;19920;52.242;20.940;2023-04-15T01:58:19;13.27;;;10.60;;
33593;SDS011;19920;52.242;20.940;2023-04-15T02:00:46;13.77;;;10.02;;
33593;SDS011;19920;52.242;20.940;2023-04-15T02:03:12;15.77;;;11.45;;
33593;SDS011;19920;52.242;20.940;2023-04-15T02:05:38;15.65;;;11.15;;
33593;SDS011;19920;52.242;20.940;2023-04-15T02:08:03;14.45;;;11.55;;
33593;SDS011;19920;52.242;20.940;2023-04-15T02:10:30;15.32;;;11.05;;
33593;SDS011;19920;52.242;20.940;2023-04-15T02:12:55;16.92;;;12.52;;
33593;SDS011;19920;52.242;20.940;2023-04-15T02:15:21;16.05;;;11.40;;
33593;SDS011;19920;52.242;20.940;2023-04-15T02:17:47;16.55;;;12.38;;
33593;SDS011;19920;52.242;20.940;2023-04-15T02:20:15;18.42;;;12.57;;
33593;SDS011;19920;52.242;20.940;2023-04-15T02:22:41;14.77;;;11.70;;
33593;SDS011;19920;52.242;20.940;2023-04-15T02:25:07;16.98;;;11.95;;
33593;SDS011;19920;52.242;20.940;2023-04-15T02:27:34;13.77;;;11.30;;
33593;SDS011;19920;52.242;20.940;2023-04-15T02:30:00;13.95;;;11.80;;
33593;SDS011;19920;52.242;20.940;2023-04-15T02:32:26;15.07;;;11.38;;
33593;SDS011;19920;52.242;20.940;2023-04-15T02:34:52;15.10;;;12.18;;
33593;SDS011;19920;52.242;20.940;2023-04-15T02:37:18;15.43;;;11.95;;
33593;SDS011;19920;52.242;20.940;2023-04-15T02:39:45;15.30;;;12.20;;
33593;SDS011;19920;52.242;20.940;2023-04-15T02:42:10;14.80;;;12.02;;
33593;SDS011;19920;52.242;20.940;2023-04-15T02:44:37;18.95;;;12.55;;
33593;SDS011;19920;52.242;20.940;2023-04-15T02:47:03;15.90;;;13.13;;
33593;SDS011;19920;52.242;20.940;2023-04-15T02:49:31;16.45;;;12.27;;
33593;SDS011;19920;52.242;20.940;2023-04-15T02:51:56;17.20;;;12.65;;
33593;SDS011;19920;52.242;20.940;2023-04-15T02:54:24;15.23;;;12.63;;
33593;SDS011;19920;52.242;20.940;2023-04-15T02:56:52;16.35;;;11.40;;
33593;SDS011;19920;52.242;20.940;2023-04-15T02:59:21;16.88;;;12.18;;
33593;SDS011;19920;52.242;20.940;2023-04-15T03:01:47;15.52;;;11.82;;
33593;SDS011;19920;52.242;20.940;2023-04-15T03:04:12;15.35;;;12.15;;
33593;SDS011;19920;52.242;20.940;2023-04-15T03:06:38;15.10;;;12.02;;
33593;SDS011;19920;52.242;20.940;2023-04-15T03:09:04;14.38;;;11.88;;
33593;SDS011;19920;52.242;20.940;2023-04-15T03:11:29;15.60;;;12.07;;
33593;SDS011;19920;52.242;20.940;2023-04-15T03:13:56;15.40;;;12.18;;
33593;SDS011;19920;52.242;20.940;2023-04-15T03:16:22;15.15;;;11.93;;
33593;SDS011;19920;52.242;20.940;2023-04-15T03:18:49;15.93;;;11.95;;
33593;SDS011;19920;52.242;20.940;2023-04-15T03:21:14;15.50;;;11.55;;
33593;SDS011;19920;52.242;20.940;2023-04-15T03:23:40;14.48;;;11.32;;
33593;SDS011;19920;52.242;20.940;2023-04-15T03:26:06;14.43;;;12.00;;
33593;SDS011;19920;52.242;20.940;2023-04-15T03:28:31;15.38;;;12.30;;
33593;SDS011;19920;52.242;20.940;2023-04-15T03:30:57;14.90;;;12.13;;
33593;SDS011;19920;52.242;20.940;2023-04-15T03:33:23;14.13;;;11.43;;
33593;SDS011;19920;52.242;20.940;2023-04-15T03:35:49;15.52;;;11.80;;
33593;SDS011;19920;52.242;20.940;2023-04-15T03:38:15;14.30;;;11.65;;
33593;SDS011;19920;52.242;20.940;2023-04-15T03:40:42;14.15;;;11.13;;
33593;SDS011;19920;52.242;20.940;2023-04-15T03:43:07;13.95;;;10.70;;
33593;SDS011;19920;52.242;20.940;2023-04-15T03:45:33;13.60;;;10.73;;
33593;SDS011;19920;52.242;20.940;2023-04-15T03:47:59;13.67;;;10.97;;
33593;SDS011;19920;52.242;20.940;2023-04-15T03:50:24;15.90;;;11.43;;
33593;SDS011;19920;52.242;20.940;2023-04-15T03:52:51;14.85;;;11.07;;
33593;SDS011;19920;52.242;20.940;2023-04-15T03:55:17;13.30;;;11.15;;
33593;SDS011;19920;52.242;20.940;2023-04-15T03:57:44;13.95;;;11.40;;
33593;SDS011;19920;52.242;20.940;2023-04-15T04:00:10;14.65;;;11.15;;
33593;SDS011;19920;52.242;20.940;2023-04-15T04:02:35;16.05;;;11.30;;
33593;SDS011;19920;52.242;20.940;2023-04-15T04:05:01;14.93;;;10.95;;
33593;SDS011;19920;52.242;20.940;2023-04-15T04:07:27;15.70;;;11.75;;
33593;SDS011;19920;52.242;20.940;2023-04-15T04:09:53;16.52;;;12.00;;
33593;SDS011;19920;52.242;20.940;2023-04-15T04:12:18;16.27;;;11.32;;
33593;SDS011;19920;52.242;20.940;2023-04-15T04:14:44;13.43;;;11.13;;
33593;SDS011;19920;52.242;20.940;2023-04-15T04:17:10;15.07;;;10.98;;
33593;SDS011;19920;52.242;20.940;2023-04-15T04:19:35;14.82;;;10.85;;
33593;SDS011;19920;52.242;20.940;2023-04-15T04:22:01;15.05;;;11.55;;
33593;SDS011;19920;52.242;20.940;2023-04-15T04:24:27;16.63;;;11.20;;
33593;SDS011;19920;52.242;20.940;2023-04-15T04:26:52;14.35;;;10.65;;
33593;SDS011;19920;52.242;20.940;2023-04-15T04:29:18;12.93;;;10.45;;
33593;SDS011;19920;52.242;20.940;2023-04-15T04:31:44;13.80;;;10.50;;
33593;SDS011;19920;52.242;20.940;2023-04-15T04:34:09;15.13;;;10.75;;
33593;SDS011;19920;52.242;20.940;2023-04-15T04:36:35;15.05;;;11.55;;
33593;SDS011;19920;52.242;20.940;2023-04-15T04:39:01;12.60;;;10.30;;
33593;SDS011;19920;52.242;20.940;2023-04-15T04:41:26;15.40;;;11.07;;
33593;SDS011;19920;52.242;20.940;2023-04-15T04:43:52;14.48;;;11.27;;
33593;SDS011;19920;52.242;20.940;2023-04-15T04:46:18;16.00;;;11.10;;
33593;SDS011;19920;52.242;20.940;2023-04-15T04:48:43;15.93;;;11.10;;
33593;SDS011;19920;52.242;20.940;2023-04-15T04:51:09;15.57;;;10.90;;
33593;SDS011;19920;52.242;20.940;2023-04-15T04:53:35;13.93;;;10.93;;
33593;SDS011;19920;52.242;20.940;2023-04-15T04:56:01;14.18;;;11.15;;
33593;SDS011;19920;52.242;20.940;2023-04-15T04:58:27;13.27;;;11.32;;
33593;SDS011;19920;52.242;20.940;2023-04-15T05:00:53;12.95;;;10.32;;
33593;SDS011;19920;52.242;20.940;2023-04-15T05:03:19;14.07;;;10.73;;
33593;SDS011;19920;52.242;20.940;2023-04-15T05:05:45;12.85;;;10.43;;
33593;SDS011;19920;52.242;20.940;2023-04-15T05:08:13;15.57;;;11.50;;
33593;SDS011;19920;52.242;20.940;2023-04-15T05:10:39;13.48;;;10.60;;
33593;SDS011;19920;52.242;20.940;2023-04-15T05:13:04;14.02;;;11.20;;
33593;SDS011;19920;52.242;20.940;2023-04-15T05:15:30;13.30;;;10.32;;
33593;SDS011;19920;52.242;20.940;2023-04-15T05:17:56;14.07;;;10.90;;
33593;SDS011;19920;52.242;20.940;2023-04-15T05:20:22;12.65;;;10.45;;
33593;SDS011;19920;52.242;20.940;2023-04-15T05:22:47;13.18;;;10.68;;
33593;SDS011;19920;52.242;20.940;2023-04-15T05:25:13;13.98;;;10.15;;
33593;SDS011;19920;52.242;20.940;2023-04-15T05:27:39;14.32;;;10.93;;
33593;SDS011;19920;52.242;20.940;2023-04-15T05:30:04;16.80;;;10.88;;
33593;SDS011;19920;52.242;20.940;2023-04-15T05:32:31;13.07;;;9.50;;
33593;SDS011;19920;52.242;20.940;2023-04-15T05:34:56;14.75;;;10.82;;
33593;SDS011;19920;52.242;20.940;2023-04-15T05:37:22;13.15;;;9.77;;
33593;SDS011;19920;52.242;20.940;2023-04-15T05:39:48;12.50;;;10.05;;
33593;SDS011;19920;52.242;20.940;2023-04-15T05:42:13;16.20;;;10.63;;
33593;SDS011;19920;52.242;20.940;2023-04-15T05:44:39;12.93;;;9.98;;
33593;SDS011;19920;52.242;20.940;2023-04-15T05:47:05;12.82;;;9.68;;
33593;SDS011;19920;52.242;20.940;2023-04-15T05:49:32;13.80;;;9.73;;
33593;SDS011;19920;52.242;20.940;2023-04-15T05:51:58;12.27;;;9.35;;
33593;SDS011;19920;52.242;20.940;2023-04-15T05:54:24;14.68;;;10.02;;
33593;SDS011;19920;52.242;20.940;2023-04-15T05:56:51;13.93;;;9.45;;
33593;SDS011;19920;52.242;20.940;2023-04-15T05:59:17;10.95;;;8.77;;
33593;SDS011;19920;52.242;20.940;2023-04-15T06:01:43;12.70;;;9.52;;
33593;SDS011;19920;52.242;20.940;2023-04-15T06:04:09;10.25;;;9.05;;
33593;SDS011;19920;52.242;20.940;2023-04-15T06:06:35;13.60;;;10.18;;
33593;SDS011;19920;52.242;20.940;2023-04-15T06:09:02;10.85;;;9.05;;
33593;SDS011;19920;52.242;20.940;2023-04-15T06:11:28;11.32;;;9.10;;
33593;SDS011;19920;52.242;20.940;2023-04-15T06:13:53;10.55;;;8.57;;
33593;SDS011;19920;52.242;20.940;2023-04-15T06:16:19;12.18;;;9.07;;
33593;SDS011;19920;52.242;20.940;2023-04-15T06:18:45;12.00;;;8.82;;
33593;SDS011;19920;52.242;20.940;2023-04-15T06:21:10;12.40;;;9.13;;
33593;SDS011;19920;52.242;20.940;2023-04-15T06:23:36;12.85;;;9.73;;
33593;SDS011;19920;52.242;20.940;2023-04-15T06:26:02;13.18;;;8.95;;
33593;SDS011;19920;52.242;20.940;2023-04-15T06:28:27;11.88;;;8.82;;
33593;SDS011;19920;52.242;20.940;2023-04-15T06:30:53;10.80;;;9.23;;
33593;SDS011;19920;52.242;20.940;2023-04-15T06:33:20;12.35;;;9.05;;
33593;SDS011;19920;52.242;20.940;2023-04-15T06:35:45;11.18;;;8.75;;
33593;SDS011;19920;52.242;20.940;2023-04-15T06:38:12;12.40;;;9.00;;
33593;SDS011;19920;52.242;20.940;2023-04-15T06:40:38;10.45;;;8.73;;
33593;SDS011;19920;52.242;20.940;2023-04-15T06:43:04;9.68;;;8.35;;
33593;SDS011;19920;52.242;20.940;2023-04-15T06:45:29;10.60;;;8.43;;
33593;SDS011;19920;52.242;20.940;2023-04-15T06:47:56;11.73;;;7.78;;
33593;SDS011;19920;52.242;20.940;2023-04-15T06:50:21;9.85;;;7.97;;
33593;SDS011;19920;52.242;20.940;2023-04-15T06:52:47;10.90;;;8.60;;
33593;SDS011;19920;52.242;20.940;2023-04-15T06:55:13;11.13;;;8.50;;
33593;SDS011;19920;52.242;20.940;2023-04-15T06:57:38;11.70;;;9.50;;
33593;SDS011;19920;52.242;20.940;2023-04-15T07:00:04;9.60;;;7.95;;
33593;SDS011;19920;52.242;20.940;2023-04-15T07:02:32;9.60;;;7.55;;
33593;SDS011;19920;52.242;20.940;2023-04-15T07:04:58;8.90;;;7.35;;
33593;SDS011;19920;52.242;20.940;2023-04-15T07:07:24;9.60;;;7.20;;
33593;SDS011;19920;52.242;20.940;2023-04-15T07:09:49;8.48;;;7.07;;
33593;SDS011;19920;52.242;20.940;2023-04-15T07:12:17;9.45;;;7.90;;
33593;SDS011;19920;52.242;20.940;2023-04-15T07:14:43;9.30;;;7.90;;
33593;SDS011;19920;52.242;20.940;2023-04-15T07:17:09;10.23;;;7.22;;
33593;SDS011;19920;52.242;20.940;2023-04-15T07:19:35;8.88;;;6.90;;
33593;SDS011;19920;52.242;20.940;2023-04-15T07:22:01;9.30;;;7.07;;
33593;SDS011;19920;52.242;20.940;2023-04-15T07:24:26;10.05;;;6.68;;
33593;SDS011;19920;52.242;20.940;2023-04-15T07:26:53;8.85;;;6.60;;
33593;SDS011;19920;52.242;20.940;2023-04-15T07:29:21;9.23;;;6.55;;
33593;SDS011;19920;52.242;20.940;2023-04-15T07:31:47;8.65;;;6.75;;
33593;SDS011;19920;52.242;20.940;2023-04-15T07:34:13;9.05;;;6.60;;
33593;SDS011;19920;52.242;20.940;2023-04-15T07:36:38;9.75;;;6.90;;
33593;SDS011;19920;52.242;20.940;2023-04-15T07:39:04;7.95;;;6.32;;
33593;SDS011;19920;52.242;20.940;2023-04-15T07:41:30;8.10;;;6.13;;
33593;SDS011;19920;52.242;20.940;2023-04-15T07:43:56;8.45;;;6.40;;
33593;SDS011;19920;52.242;20.940;2023-04-15T07:46:21;7.75;;;5.63;;
33593;SDS011;19920;52.242;20.940;2023-04-15T07:48:48;7.82;;;6.10;;
33593;SDS011;19920;52.242;20.940;2023-04-15T07:51:14;7.03;;;6.20;;
33593;SDS011;19920;52.242;20.940;2023-04-15T07:53:41;9.15;;;5.82;;
33593;SDS011;19920;52.242;20.940;2023-04-15T07:56:08;7.20;;;5.72;;
33593;SDS011;19920;52.242;20.940;2023-04-15T07:58:34;6.40;;;5.35;;
33593;SDS011;19920;52.242;20.940;2023-04-15T08:00:59;7.20;;;5.90;;
33593;SDS011;19920;52.242;20.940;2023-04-15T08:03:25;6.85;;;5.53;;
33593;SDS011;19920;52.242;20.940;2023-04-15T08:05:51;7.43;;;5.22;;
33593;SDS011;19920;52.242;20.940;2023-04-15T08:08:18;6.75;;;5.20;;
33593;SDS011;19920;52.242;20.940;2023-04-15T08:10:44;6.00;;;5.10;;
33593;SDS011;19920;52.242;20.940;2023-04-15T08:13:09;8.43;;;5.30;;
33593;SDS011;19920;52.242;20.940;2023-04-15T08:15:35;5.75;;;4.82;;
33593;SDS011;19920;52.242;20.940;2023-04-15T08:18:02;5.93;;;4.93;;
33593;SDS011;19920;52.242;20.940;2023-04-15T08:20:27;5.15;;;4.50;;
33593;SDS011;19920;52.242;20.940;2023-04-15T08:22:53;5.05;;;4.40;;
33593;SDS011;19920;52.242;20.940;2023-04-15T08:25:19;6.63;;;4.60;;
33593;SDS011;19920;52.242;20.940;2023-04-15T08:27:45;5.53;;;4.53;;
33593;SDS011;19920;52.242;20.940;2023-04-15T08:30:11;5.43;;;4.55;;
33593;SDS011;19920;52.242;20.940;2023-04-15T08:32:38;5.95;;;4.70;;
33593;SDS011;19920;52.242;20.940;2023-04-15T08:35:03;5.28;;;4.55;;
33593;SDS011;19920;52.242;20.940;2023-04-15T08:37:29;5.47;;;4.40;;
33593;SDS011;19920;52.242;20.940;2023-04-15T08:39:55;6.07;;;4.18;;
33593;SDS011;19920;52.242;20.940;2023-04-15T08:42:30;5.13;;;4.20;;
33593;SDS011;19920;52.242;20.940;2023-04-15T08:44:58;4.28;;;3.88;;
33593;SDS011;19920;52.242;20.940;2023-04-15T08:47:25;5.18;;;4.10;;
33593;SDS011;19920;52.242;20.940;2023-04-15T08:49:55;5.75;;;4.72;;
33593;SDS011;19920;52.242;20.940;2023-04-15T08:52:23;5.95;;;4.25;;
33593;SDS011;19920;52.242;20.940;2023-04-15T08:54:50;5.30;;;4.03;;
33593;SDS011;19920;52.242;20.940;2023-04-15T08:57:22;5.10;;;4.00;;
33593;SDS011;19920;52.242;20.940;2023-04-15T08:59:53;7.75;;;4.65;;
33593;SDS011;19920;52.242;20.940;2023-04-15T09:02:21;4.68;;;3.80;;
33593;SDS011;19920;52.242;20.940;2023-04-15T09:04:49;5.97;;;3.88;;
33593;SDS011;19920;52.242;20.940;2023-04-15T09:07:15;6.07;;;3.72;;
33593;SDS011;19920;52.242;20.940;2023-04-15T09:09:41;5.75;;;4.10;;
33593;SDS011;19920;52.242;20.940;2023-04-15T09:12:07;4.57;;;3.60;;
33593;SDS011;19920;52.242;20.940;2023-04-15T09:14:33;4.75;;;2.95;;
33593;SDS011;19920;52.242;20.940;2023-04-15T09:16:59;5.20;;;3.45;;
33593;SDS011;19920;52.242;20.940;2023-04-15T09:19:26;4.97;;;3.90;;
33593;SDS011;19920;52.242;20.940;2023-04-15T09:21:52;7.72;;;3.22;;
33593;SDS011;19920;52.242;20.940;2023-04-15T09:24:21;4.38;;;3.35;;
33593;SDS011;19920;52.242;20.940;2023-04-15T09:26:47;3.88;;;3.05;;
33593;SDS011;19920;52.242;20.940;2023-04-15T09:29:16;4.43;;;3.37;;
33593;SDS011;19920;52.242;20.940;2023-04-15T09:31:42;3.13;;;2.75;;
33593;SDS011;19920;52.242;20.940;2023-04-15T09:34:08;3.88;;;3.28;;
33593;SDS011;19920;52.242;20.940;2023-04-15T09:39:13;3.53;;;3.22;;
33593;SDS011;19920;52.242;20.940;2023-04-15T09:41:39;4.47;;;2.50;;
33593;SDS011;19920;52.242;20.940;2023-04-15T09:44:05;4.43;;;3.20;;
33593;SDS011;19920;52.242;20.940;2023-04-15T09:46:40;4.55;;;3.35;;
33593;SDS011;19920;52.242;20.940;2023-04-15T09:49:10;5.60;;;3.17;;
33593;SDS011;19920;52.242;20.940;2023-04-15T09:51:36;3.88;;;2.90;;
33593;SDS011;19920;52.242;20.940;2023-04-15T09:54:02;4.32;;;3.42;;
33593;SDS011;19920;52.242;20.940;2023-04-15T09:56:34;4.15;;;3.55;;
33593;SDS011;19920;52.242;20.940;2023-04-15T09:59:09;4.43;;;2.78;;
33593;SDS011;19920;52.242;20.940;2023-04-15T10:01:34;4.63;;;3.10;;
33593;SDS011;19920;52.242;20.940;2023-04-15T10:04:02;3.60;;;3.05;;
33593;SDS011;19920;52.242;20.940;2023-04-15T10:06:28;4.55;;;3.90;;
33593;SDS011;19920;52.242;20.940;2023-04-15T10:08:56;3.75;;;3.35;;
33593;SDS011;19920;52.242;20.940;2023-04-15T10:11:23;4.22;;;3.25;;
33593;SDS011;19920;52.242;20.940;2023-04-15T10:13:49;3.10;;;2.80;;
33593;SDS011;19920;52.242;20.940;2023-04-15T10:16:18;3.13;;;2.60;;
33593;SDS011;19920;52.242;20.940;2023-04-15T10:18:46;4.13;;;3.28;;
33593;SDS011;19920;52.242;20.940;2023-04-15T10:21:18;4.05;;;3.00;;
33593;SDS011;19920;52.242;20.940;2023-04-15T10:23:46;3.20;;;2.70;;
33593;SDS011;19920;52.242;20.940;2023-04-15T10:26:12;2.63;;;2.38;;
33593;SDS011;19920;52.242;20.940;2023-04-15T10:28:39;3.22;;;2.92;;
33593;SDS011;19920;52.242;20.940;2023-04-15T10:31:05;3.85;;;2.70;;
33593;SDS011;19920;52.242;20.940;2023-04-15T10:33:31;3.50;;;3.13;;
33593;SDS011;19920;52.242;20.940;2023-04-15T10:35:59;3.80;;;2.95;;
33593;SDS011;19920;52.242;20.940;2023-04-15T10:43:52;2.83;;;2.53;;
33593;SDS011;19920;52.242;20.940;2023-04-15T10:46:21;4.13;;;2.95;;
33593;SDS011;19920;52.242;20.940;2023-04-15T10:49:08;2.78;;;2.47;;
33593;SDS011;19920;52.242;20.940;2023-04-15T10:51:42;3.97;;;2.63;;
33593;SDS011;19920;52.242;20.940;2023-04-15T10:54:14;2.60;;;2.25;;
33593;SDS011;19920;52.242;20.940;2023-04-15T10:56:42;3.05;;;2.50;;
33593;SDS011;19920;52.242;20.940;2023-04-15T10:59:08;2.75;;;2.22;;
33593;SDS011;19920;52.242;20.940;2023-04-15T11:01:53;4.32;;;2.80;;
33593;SDS011;19920;52.242;20.940;2023-04-15T11:07:32;3.25;;;2.80;;
33593;SDS011;19920;52.242;20.940;2023-04-15T11:09:58;4.32;;;2.72;;
33593;SDS011;19920;52.242;20.940;2023-04-15T11:12:34;4.65;;;2.55;;
33593;SDS011;19920;52.242;20.940;2023-04-15T11:20:51;4.65;;;3.00;;
33593;SDS011;19920;52.242;20.940;2023-04-15T11:23:40;4.05;;;2.55;;
33593;SDS011;19920;52.242;20.940;2023-04-15T11:26:10;5.00;;;2.90;;
33593;SDS011;19920;52.242;20.940;2023-04-15T11:28:37;3.50;;;2.83;;
33593;SDS011;19920;52.242;20.940;2023-04-15T11:31:09;3.65;;;2.60;;
33593;SDS011;19920;52.242;20.940;2023-04-15T11:33:35;4.32;;;2.88;;
33593;SDS011;19920;52.242;20.940;2023-04-15T11:36:01;3.95;;;2.85;;
33593;SDS011;19920;52.242;20.940;2023-04-15T11:38:28;4.18;;;2.53;;
33593;SDS011;19920;52.242;20.940;2023-04-15T11:40:54;3.17;;;2.60;;
33593;SDS011;19920;52.242;20.940;2023-04-15T11:43:20;4.05;;;2.58;;
33593;SDS011;19920;52.242;20.940;2023-04-15T11:45:54;3.53;;;2.42;;
33593;SDS011;19920;52.242;20.940;2023-04-15T11:48:28;3.80;;;2.35;;
33593;SDS011;19920;52.242;20.940;2023-04-15T11:50:55;3.75;;;2.40;;
33593;SDS011;19920;52.242;20.940;2023-04-15T11:53:23;5.35;;;2.40;;
33593;SDS011;19920;52.242;20.940;2023-04-15T11:55:50;3.70;;;2.55;;
33593;SDS011;19920;52.242;20.940;2023-04-15T12:03:13;5.60;;;2.97;;
33593;SDS011;19920;52.242;20.940;2023-04-15T12:13:55;3.58;;;3.05;;
33593;SDS011;19920;52.242;20.940;2023-04-15T12:16:23;4.40;;;3.25;;
33593;SDS011;19920;52.242;20.940;2023-04-15T12:18:49;4.30;;;2.70;;
33593;SDS011;19920;52.242;20.940;2023-04-15T12:21:23;4.07;;;2.80;;
33593;SDS011;19920;52.242;20.940;2023-04-15T12:23:50;4.82;;;2.60;;
33593;SDS011;19920;52.242;20.940;2023-04-15T12:26:43;3.83;;;2.70;;
33593;SDS011;19920;52.242;20.940;2023-04-15T12:29:11;3.20;;;2.60;;
33593;SDS011;19920;52.242;20.940;2023-04-15T12:31:51;5.47;;;2.88;;
33593;SDS011;19920;52.242;20.940;2023-04-15T12:34:27;4.38;;;3.42;;
33593;SDS011;19920;52.242;20.940;2023-04-15T12:36:57;3.50;;;2.90;;
33593;SDS011;19920;52.242;20.940;2023-04-15T12:39:25;5.20;;;3.20;;
33593;SDS011;19920;52.242;20.940;2023-04-15T12:41:52;4.13;;;3.70;;
33593;SDS011;19920;52.242;20.940;2023-04-15T12:44:18;5.05;;;3.20;;
33593;SDS011;19920;52.242;20.940;2023-04-15T12:46:46;7.03;;;3.38;;
33593;SDS011;19920;52.242;20.940;2023-04-15T12:49:11;3.92;;;3.53;;
33593;SDS011;19920;52.242;20.940;2023-04-15T12:51:39;5.00;;;3.15;;
33593;SDS011;19920;52.242;20.940;2023-04-15T12:54:06;4.32;;;3.33;;
33593;SDS011;19920;52.242;20.940;2023-04-15T12:56:31;4.60;;;3.33;;
33593;SDS011;19920;52.242;20.940;2023-04-15T12:58:57;5.90;;;3.47;;
33593;SDS011;19920;52.242;20.940;2023-04-15T13:01:23;3.78;;;3.10;;
33593;SDS011;19920;52.242;20.940;2023-04-15T13:03:48;6.68;;;3.70;;
33593;SDS011;19920;52.242;20.940;2023-04-15T13:06:15;5.10;;;4.10;;
33593;SDS011;19920;52.242;20.940;2023-04-15T13:08:40;4.45;;;3.50;;
33593;SDS011;19920;52.242;20.940;2023-04-15T13:11:06;4.57;;;3.28;;
33593;SDS011;19920;52.242;20.940;2023-04-15T13:13:32;3.67;;;3.10;;
33593;SDS011;19920;52.242;20.940;2023-04-15T13:15:57;3.92;;;2.67;;
33593;SDS011;19920;52.242;20.940;2023-04-15T13:18:23;3.47;;;2.85;;
33593;SDS011;19920;52.242;20.940;2023-04-15T13:20:49;3.85;;;2.78;;
33593;SDS011;19920;52.242;20.940;2023-04-15T13:23:15;4.70;;;2.63;;
33593;SDS011;19920;52.242;20.940;2023-04-15T13:25:41;4.30;;;2.92;;
33593;SDS011;19920;52.242;20.940;2023-04-15T13:28:07;3.92;;;3.15;;
33593;SDS011;19920;52.242;20.940;2023-04-15T13:30:36;5.63;;;2.90;;
33593;SDS011;19920;52.242;20.940;2023-04-15T13:33:02;2.90;;;2.40;;
33593;SDS011;19920;52.242;20.940;2023-04-15T13:35:28;9.68;;;2.97;;
33593;SDS011;19920;52.242;20.940;2023-04-15T13:37:54;3.10;;;2.50;;
33593;SDS011;19920;52.242;20.940;2023-04-15T13:40:20;5.85;;;4.07;;
33593;SDS011;19920;52.242;20.940;2023-04-15T13:42:46;3.13;;;2.80;;
33593;SDS011;19920;52.242;20.940;2023-04-15T13:45:12;3.97;;;2.55;;
33593;SDS011;19920;52.242;20.940;2023-04-15T13:47:38;4.82;;;2.25;;
33593;SDS011;19920;52.242;20.940;2023-04-15T13:50:04;2.38;;;2.05;;
33593;SDS011;19920;52.242;20.940;2023-04-15T13:52:30;3.33;;;2.10;;
33593;SDS011;19920;52.242;20.940;2023-04-15T13:54:56;3.50;;;2.17;;
33593;SDS011;19920;52.242;20.940;2023-04-15T13:57:21;3.20;;;1.77;;
33593;SDS011;19920;52.242;20.940;2023-04-15T13:59:47;2.22;;;1.92;;
33593;SDS011;19920;52.242;20.940;2023-04-15T14:02:13;3.72;;;1.90;;
33593;SDS011;19920;52.242;20.940;2023-04-15T14:04:38;2.42;;;1.52;;
33593;SDS011;19920;52.242;20.940;2023-04-15T14:07:04;4.20;;;2.05;;
33593;SDS011;19920;52.242;20.940;2023-04-15T14:09:30;3.22;;;2.00;;
33593;SDS011;19920;52.242;20.940;2023-04-15T14:11:55;2.65;;;1.90;;
33593;SDS011;19920;52.242;20.940;2023-04-15T14:14:23;2.60;;;1.70;;
33593;SDS011;19920;52.242;20.940;2023-04-15T14:16:49;2.50;;;1.90;;
33593;SDS011;19920;52.242;20.940;2023-04-15T14:19:14;1.90;;;1.60;;
33593;SDS011;19920;52.242;20.940;2023-04-15T14:21:40;2.58;;;2.00;;
33593;SDS011;19920;52.242;20.940;2023-04-15T14:24:06;2.88;;;1.50;;
33593;SDS011;19920;52.242;20.940;2023-04-15T14:26:31;3.75;;;1.77;;
33593;SDS011;19920;52.242;20.940;2023-04-15T14:28:57;3.85;;;1.77;;
33593;SDS011;19920;52.242;20.940;2023-04-15T14:31:23;3.42;;;2.00;;
33593;SDS011;19920;52.242;20.940;2023-04-15T14:33:48;1.50;;;1.40;;
33593;SDS011;19920;52.242;20.940;2023-04-15T14:36:14;2.42;;;1.75;;
33593;SDS011;19920;52.242;20.940;2023-04-15T14:38:40;3.25;;;1.70;;
33593;SDS011;19920;52.242;20.940;2023-04-15T14:41:05;3.33;;;1.70;;
33593;SDS011;19920;52.242;20.940;2023-04-15T14:43:32;2.10;;;1.60;;
33593;SDS011;19920;52.242;20.940;2023-04-15T14:45:58;1.92;;;1.70;;
33593;SDS011;19920;52.242;20.940;2023-04-15T14:48:24;2.78;;;1.65;;
33593;SDS011;19920;52.242;20.940;2023-04-15T14:50:50;2.63;;;1.65;;
33593;SDS011;19920;52.242;20.940;2023-04-15T14:53:16;2.15;;;1.50;;